Time;durP1;ratioP1;P1;durP2;ratioP2;P2;SDS_P1;SDS_P2;PMS_P1;PMS_P2;Temp;Humidity;BMP_temperature;BMP_pressure;BME280_temperature;BME280_humidity;BME280_pressure;Samples;Min_cycle;Max_cycle;Signal;HPM_P1;HPM_P2
2023/01/07 15:17:14;;;;;;;19.85;14.87;;;;;;;8.01;67.46;100494.49;2345512;82;25800;-83
2023/01/07 15:21:17;;;;;;;16.77;13.00;;;;;;;8.29;67.49;100502.83;2224557;88;25890;-83
2023/01/07 15:25:28;;;;;;;19.02;11.57;;;;;;;8.60;67.27;100500.00;2235943;87;25816;-84
2023/01/07 15:29:33;;;;;;;13.45;11.48;;;;;;;8.93;66.94;100495.03;2227593;88;25866;-81
2023/01/07 15:33:38;;;;;;;13.43;11.35;;;;;;;9.27;66.50;100494.78;2173591;89;25797;-80
2023/01/07 15:37:27;;;;;;;11.83;10.65;;;;;;;9.57;66.00;100505.66;2140286;91;25944;-81
2023/01/07 15:41:07;;;;;;;14.10;10.60;;;;;;;9.82;65.54;100495.13;2138361;91;25768;-83
2023/01/07 15:44:56;;;;;;;14.00;10.43;;;;;;;10.04;65.07;100507.01;2133265;92;25875;-82
2023/01/07 15:48:28;;;;;;;12.37;9.78;;;;;;;10.23;64.60;100503.20;2171152;89;25971;-81
2023/01/07 15:52:36;;;;;;;13.00;9.60;;;;;;;10.40;64.17;100504.55;2208882;88;25819;-80
2023/01/07 15:56:19;;;;;;;10.82;9.73;;;;;;;10.54;63.78;100510.12;2203181;88;25840;-82
2023/01/07 16:03:52;;;;;;;11.85;9.93;;;;;;;10.80;62.96;100508.17;2191933;88;25809;-82
2023/01/07 16:07:36;;;;;;;;;;;;;;;;;;;;;
2023/01/07 16:12:07;;;;;;;13.78;8.53;;;;;;;11.01;62.28;100505.63;2186877;89;25739;-84
2023/01/07 16:16:05;;;;;;;;;;;;;;;;;;;;;
2023/01/07 16:19:43;;;;;;;;;;;;;;;;;;;;;
2023/01/07 16:23:38;;;;;;;;;;;;;;;;;;;;;
2023/01/07 16:27:10;;;;;;;11.05;8.43;;;;;;;11.27;61.14;100497.98;2085846;93;25788;-84
2023/01/07 16:30:39;;;;;;;;;;;;;;;11.32;60.91;100497.65;2094883;94;26479;-83
2023/01/07 16:34:35;;;;;;;9.10;8.20;;;;;;;11.36;60.65;100486.84;2086741;94;25733;-85
2023/01/07 16:38:18;;;;;;;9.28;8.38;;;;;;;11.39;60.53;100472.56;2113715;93;27099;-83
2023/01/07 16:41:54;;;;;;;;;;;;;;;;;;;;;
2023/01/07 16:45:35;;;;;;;8.95;7.47;;;;;;;11.45;60.18;100471.39;2064700;92;25772;-85
2023/01/07 16:53:56;;;;;;;11.60;8.03;;;;;;;11.50;59.90;100451.90;2005041;97;25814;-84
2023/01/07 16:57:40;;;;;;;10.10;9.03;;;;;;;11.52;59.73;100452.39;1892969;100;25854;-83
2023/01/07 17:01:15;;;;;;;10.48;9.23;;;;;;;11.41;59.75;100425.62;1951876;99;25760;-85
2023/01/07 17:04:48;;;;;;;9.23;7.47;;;;;;;11.41;59.75;100425.62;1955818;100;25930;-84
2023/01/07 17:08:49;;;;;;;12.40;9.15;;;;;;;11.54;59.38;100448.10;1973409;99;25779;-84
2023/01/07 17:13:34;;;;;;;10.00;8.33;;;;;;;11.40;59.30;100420.80;1948510;100;26226;-81
2023/01/07 17:17:18;;;;;;;;;;;;;;;;;;;;;
2023/01/07 17:21:06;;;;;;;8.90;8.08;;;;;;;11.50;59.14;100441.02;1973018;100;25860;-84
2023/01/07 17:25:04;;;;;;;;;;;;;;;;;;;;;
2023/01/07 17:29:11;;;;;;;10.08;8.60;;;;;;;11.48;59.02;100448.39;1991440;96;25850;-84
2023/01/07 17:32:54;;;;;;;;;;;;;;;;;;;;;
2023/01/07 17:36:29;;;;;;;10.33;8.97;;;;;;;11.32;58.89;100407.60;2032049;96;25907;-84
2023/01/07 17:40:07;;;;;;;10.28;8.73;;;;;;;11.46;58.86;100437.03;2044308;96;25358;-81
2023/01/07 17:43:47;;;;;;;9.78;8.20;;;;;;;11.46;58.81;100443.55;2014673;96;25720;-82
2023/01/07 17:47:48;;;;;;;;;;;;;;;;;;;;;
2023/01/07 17:51:03;;;;;;;11.05;8.85;;;;;;;11.47;58.72;100446.61;1992390;99;25861;-82
2023/01/07 17:54:25;;;;;;;11.00;9.10;;;;;;;11.49;58.67;100434.05;2043692;95;25834;-81
2023/01/07 17:57:56;;;;;;;10.05;8.90;;;;;;;11.49;58.67;100434.05;2076293;95;25815;-81
2023/01/07 18:02:05;;;;;;;;;;;;;;;;;;;;;
2023/01/07 18:05:32;;;;;;;10.60;9.10;;;;;;;11.50;58.51;100434.50;2098039;93;26510;-81
2023/01/07 18:09:13;;;;;;;9.38;8.33;;;;;;;11.39;58.45;100406.00;2048466;91;26101;-82
2023/01/07 18:13:03;;;;;;;;;;;;;;;;;;;;;
2023/01/07 18:16:27;;;;;;;9.48;8.50;;;;;;;11.53;58.36;100428.47;2026730;93;25748;-79
2023/01/07 18:20:05;;;;;;;10.58;9.48;;;;;;;11.53;58.30;100422.81;2086777;94;25976;-81
2023/01/07 18:23:39;;;;;;;9.43;8.25;;;;;;;11.54;58.29;100422.39;2086176;93;25794;-81
2023/01/07 18:27:09;;;;;;;9.70;8.75;;;;;;;11.54;58.24;100425.00;2029339;96;25798;-80
2023/01/07 18:30:38;;;;;;;13.00;9.35;;;;;;;11.54;58.13;100435.44;2030888;95;25779;-81
2023/01/07 18:34:11;;;;;;;10.10;9.05;;;;;;;11.54;58.13;100435.44;2077108;93;25790;-83
2023/01/07 18:37:47;;;;;;;9.70;8.75;;;;;;;11.55;58.16;100437.23;2008992;98;26033;-83
2023/01/07 18:41:40;;;;;;;11.12;8.48;;;;;;;11.54;58.15;100426.30;2009726;96;25936;-83
2023/01/07 18:45:47;;;;;;;10.78;9.25;;;;;;;11.53;58.10;100428.47;2131241;92;25812;-82
2023/01/07 18:49:52;;;;;;;10.82;9.83;;;;;;;11.54;58.06;100432.44;2116756;92;25961;-84
2023/01/07 18:53:21;;;;;;;12.13;9.18;;;;;;;11.47;58.11;100416.59;2076869;94;25921;-83
2023/01/07 18:57:02;;;;;;;;;;;;;;;;;;;;;
2023/01/07 19:01:08;;;;;;;10.98;9.20;;;;;;;11.57;57.98;100423.76;2071727;94;25818;-84
2023/01/07 19:05:03;;;;;;;;;;;;;;;;;;;;;
2023/01/07 19:08:58;;;;;;;;;;;;;;;;;;;;;
2023/01/07 19:12:40;;;;;;;9.95;8.78;;;;;;;11.56;57.95;100414.17;2045948;92;25800;-83
2023/01/07 19:15:56;;;;;;;10.48;9.43;;;;;;;11.50;57.92;100398.38;2058935;95;25802;-84
2023/01/07 19:19:36;;;;;;;13.18;9.40;;;;;;;11.58;57.89;100414.67;1996578;98;25873;-86
2023/01/07 19:22:58;;;;;;;12.23;10.40;;;;;;;11.59;57.90;100412.50;1966849;99;25842;-83
2023/01/07 19:26:49;;;;;;;;;;;;;;;;;;;;;
2023/01/07 19:30:44;;;;;;;9.60;8.65;;;;;;;11.60;57.92;100417.30;1859095;104;25859;-84
2023/01/07 19:34:33;;;;;;;16.07;12.55;;;;;;;11.79;59.47;100409.41;1871883;105;25956;-85
2023/01/07 19:38:09;;;;;;;13.78;10.43;;;;;;;11.85;60.02;100409.99;1890041;103;26006;-81
2023/01/07 19:45:24;;;;;;;12.97;11.57;;;;;;;11.79;59.86;100404.19;1857197;105;26495;-80
2023/01/07 19:49:13;;;;;;;14.45;12.05;;;;;;;11.77;59.74;100405.44;1888763;99;25868;-83
2023/01/07 19:52:45;;;;;;;16.77;11.53;;;;;;;11.76;59.65;100411.95;1917366;101;25976;-81
2023/01/07 19:56:52;;;;;;;14.18;12.47;;;;;;;11.73;59.60;100403.63;1923166;102;25870;-80
2023/01/07 20:00:26;;;;;;;16.23;13.13;;;;;;;11.71;59.51;100400.52;1936533;99;25976;-81
2023/01/07 20:03:58;;;;;;;15.55;12.88;;;;;;;11.69;59.42;100401.81;1933127;98;25872;-83
2023/01/07 20:08:26;;;;;;;16.93;13.00;;;;;;;11.68;59.37;100399.19;1986081;98;25907;-82
2023/01/07 20:11:47;;;;;;;17.10;12.55;;;;;;;11.64;59.44;100392.13;1945055;100;25973;-82
2023/01/07 20:15:29;;;;;;;19.73;13.93;;;;;;;11.64;59.44;100392.13;1937383;100;25759;-82
2023/01/07 20:19:29;;;;;;;16.85;13.30;;;;;;;11.62;59.16;100387.31;1938928;100;25804;-80
2023/01/07 20:23:23;;;;;;;;;;;;;;;;;;;;;
2023/01/07 20:27:03;;;;;;;18.03;14.50;;;;;;;11.58;58.99;100370.28;1884282;103;25927;-83
2023/01/07 20:35:09;;;;;;;17.10;10.53;;;;;;;11.55;58.98;100372.83;1912106;100;26018;-79
2023/01/07 20:39:07;;;;;;;17.50;12.55;;;;;;;11.67;60.33;100372.59;1871703;104;25940;-82
2023/01/07 20:46:33;;;;;;;21.17;15.18;;;;;;;11.64;59.90;100373.84;1814864;107;25860;-83
2023/01/07 20:50:36;;;;;;;17.17;13.90;;;;;;;11.55;59.94;100372.83;1812035;107;25889;-82
2023/01/07 20:54:38;;;;;;;;;;;;;;;;;;;;;
2023/01/07 20:59:59;;;;;;;;;;;;;;;;;;;;;
2023/01/07 21:22:37;;;;;;;;;;;;;;;;;;;;;
2023/01/07 21:27:41;;;;;;;20.23;15.72;;;;;;;11.39;59.46;100376.41;1900305;102;25837;-80
2023/01/07 21:31:45;;;;;;;19.02;14.33;;;;;;;11.36;59.24;100361.56;1840368;106;25913;-80
2023/01/07 21:35:25;;;;;;;20.35;15.55;;;;;;;11.36;59.24;100361.56;1859638;105;25924;-80
2023/01/07 21:39:07;;;;;;;19.98;15.58;;;;;;;11.37;59.32;100362.44;1869970;105;25931;-81
2023/01/07 21:42:58;;;;;;;22.75;16.07;;;;;;;11.29;59.29;100353.16;1828568;105;25893;-81
2023/01/07 21:46:53;;;;;;;;;;;;;;;;;;;;;
2023/01/07 21:50:35;;;;;;;22.40;16.07;;;;;;;11.34;59.19;100358.06;1957265;98;25844;-79
2023/01/07 21:58:13;;;;;;;24.32;15.50;;;;;;;11.34;59.14;100358.94;2117997;93;25931;-80
2023/01/07 22:01:48;;;;;;;21.20;15.20;;;;;;;11.23;59.17;100337.36;2103527;93;26379;-79
2023/01/07 22:05:23;;;;;;;26.25;17.23;;;;;;;11.35;59.09;100359.81;2016649;92;25832;-79
2023/01/07 22:09:16;;;;;;;;;;;;;;;;;;;;;
2023/01/07 22:13:07;;;;;;;21.95;16.27;;;;;;;11.36;59.02;100351.12;1924510;102;25780;-83
2023/01/07 22:16:53;;;;;;;21.68;15.45;;;;;;;11.36;59.00;100353.73;1863762;105;25977;-87
2023/01/07 22:20:40;;;;;;;22.60;16.75;;;;;;;11.27;58.98;100337.48;1844504;105;25838;-88
